アナディリ の空港の天気 - METARとTAF

アナディリ・ウゴルヌイ空港 ( UHMA / DYR ) - ロシア アナディリ
飛行場実況気象(Metar)
観測時間08/11 18:00 MAGT (08/11 07:00 UTC)
風向・風速南南東 3m/s
視程10km以上
天気現象
なし
気温19℃
湿度56%
気圧1008hPa
METARUHMA 110700Z 16003MPS CAVOK 19/10 Q1008 R19/////// NOSIG RMK TDZ R19/16003G04MPS END R19/15004G05MPS QFE750/1001
過去の天気等 Google飛行場航空写真 Wunderground天気予報

過去48時間のMETAR

飛行場予報(TAF)
発表時間: 8/11 15:51 MAGT (8/11 04:51 UTC)
予報対象時間: 11日17時 MAGT ~ 12日17時 MAGT
風向・風速南 3m/s 瞬間風速 8m/s
視程10km以上
全天の4割程度の雲 雲底高度 910m
11日17時 MAGT ~ 12日17時 MAGT に一時的に
風向・風速南東 8m/s 瞬間風速 13m/s
視程5000m
天気現象弱いしゅう雨 もや
全天の4割程度の雲 雲底高度 210m
全天の8割程度の積乱雲 雲底高度 610m
TAF UHMA 110451Z 1106/1206 18003G08MPS 9999 SCT030
TEMPO 1106/1206 13008G13MPS 5000 -SHRA BR SCT007 BKN020CB